Time;durP1;ratioP1;P1;durP2;ratioP2;P2;SDS_P1;SDS_P2;PMS_P1;PMS_P2;Temp;Humidity;BMP_temperature;BMP_pressure;BME280_temperature;BME280_humidity;BME280_pressure;Samples;Min_cycle;Max_cycle;Signal;HPM_P1;HPM_P2
2023/09/18 00:00:05;;;;;;;8.93;8.30;;;;;;;;;;4889188;29;20489;-73
2023/09/18 00:02:31;;;;;;;9.10;8.60;;;;;;;;;;4893817;29;20631;-72
2023/09/18 00:04:57;;;;;;;8.27;7.90;;;;;;;;;;4894945;29;21267;-72
2023/09/18 00:07:23;;;;;;;8.83;8.20;;;;;;;;;;4893011;29;20457;-72
2023/09/18 00:09:51;;;;;;;8.43;8.03;;;;;;;;;;4896096;29;21003;-73
2023/09/18 00:12:17;;;;;;;9.33;8.37;;;;;;;;;;4897335;29;20444;-72
2023/09/18 00:14:43;;;;;;;9.47;8.70;;;;;;;;;;4893901;29;20825;-72
2023/09/18 00:17:09;;;;;;;9.23;8.60;;;;;;;;;;4898964;29;20441;-72
2023/09/18 00:19:35;;;;;;;9.50;9.00;;;;;;;;;;4894493;29;20425;-71
2023/09/18 00:22:01;;;;;;;9.03;8.40;;;;;;;;;;4896087;29;20475;-73
2023/09/18 00:24:28;;;;;;;9.67;9.07;;;;;;;;;;4894025;29;20439;-72
2023/09/18 00:26:54;;;;;;;8.80;8.23;;;;;;;;;;4893475;29;20750;-72
2023/09/18 00:29:20;;;;;;;9.03;8.43;;;;;;;;;;4895032;29;20440;-73
2023/09/18 00:31:46;;;;;;;9.03;8.43;;;;;;;;;;4883614;29;20459;-73
2023/09/18 00:34:12;;;;;;;9.53;8.60;;;;;;;;;;4886962;29;20961;-72
2023/09/18 00:36:38;;;;;;;9.83;8.93;;;;;;;;;;4886224;29;20473;-73
2023/09/18 00:39:04;;;;;;;7.50;7.10;;;;;;;;;;4888767;29;20937;-73
2023/09/18 00:41:30;;;;;;;8.20;7.70;;;;;;;;;;4889324;29;20496;-73
2023/09/18 00:43:56;;;;;;;9.93;9.27;;;;;;;;;;4887924;29;20954;-73
2023/09/18 00:46:23;;;;;;;9.47;8.87;;;;;;;;;;4892657;29;20445;-73
2023/09/18 00:48:49;;;;;;;9.77;9.10;;;;;;;;;;4887251;29;20871;-73
2023/09/18 00:51:15;;;;;;;10.17;9.37;;;;;;;;;;4887771;29;20464;-73
2023/09/18 00:53:44;;;;;;;10.37;9.77;;;;;;;;;;4887428;29;20441;-72
2023/09/18 00:56:10;;;;;;;9.67;9.00;;;;;;;;;;4887638;29;21126;-73
2023/09/18 00:58:36;;;;;;;9.33;8.50;;;;;;;;;;4887099;29;20845;-73
2023/09/18 01:01:03;;;;;;;9.03;8.40;;;;;;;;;;4887227;29;20516;-73
2023/09/18 01:03:29;;;;;;;8.97;8.10;;;;;;;;;;4894741;29;20925;-73
2023/09/18 01:05:56;;;;;;;8.67;8.13;;;;;;;;;;4890406;29;20988;-73
2023/09/18 01:08:22;;;;;;;9.23;8.67;;;;;;;;;;4886797;29;20463;-73
2023/09/18 01:10:54;;;;;;;8.70;8.27;;;;;;;;;;4882048;29;20441;-73
2023/09/18 01:13:24;;;;;;;10.43;9.57;;;;;;;;;;4886292;29;20441;-73
2023/09/18 01:15:55;;;;;;;9.70;9.00;;;;;;;;;;4887639;29;20468;-73
2023/09/18 01:18:21;;;;;;;9.20;8.40;;;;;;;;;;4886462;29;21476;-72
2023/09/18 01:20:47;;;;;;;8.53;8.13;;;;;;;;;;4887976;29;20532;-73
2023/09/18 01:23:13;;;;;;;10.00;8.97;;;;;;;;;;4890210;29;20616;-72
2023/09/18 01:25:39;;;;;;;9.40;8.57;;;;;;;;;;4891222;29;20436;-72
2023/09/18 01:28:05;;;;;;;9.40;8.60;;;;;;;;;;4893304;29;20432;-72
2023/09/18 01:30:31;;;;;;;7.93;7.33;;;;;;;;;;4889336;29;20452;-72
2023/09/18 01:32:58;;;;;;;8.03;7.43;;;;;;;;;;4890410;29;20592;-72
2023/09/18 01:35:29;;;;;;;9.53;8.73;;;;;;;;;;4891531;29;20445;-72
2023/09/18 01:37:56;;;;;;;9.10;8.60;;;;;;;;;;4899893;29;20975;-72
2023/09/18 01:40:23;;;;;;;9.57;8.57;;;;;;;;;;4891283;29;20449;-72
2023/09/18 01:42:49;;;;;;;8.63;8.23;;;;;;;;;;4891404;29;20469;-72
2023/09/18 01:45:15;;;;;;;9.43;8.80;;;;;;;;;;4891617;29;20799;-72
2023/09/18 01:47:41;;;;;;;9.40;8.57;;;;;;;;;;4896514;29;20562;-72
2023/09/18 01:50:07;;;;;;;9.27;8.60;;;;;;;;;;4890865;29;20980;-72
2023/09/18 01:52:34;;;;;;;9.10;8.50;;;;;;;;;;4890382;29;20443;-72
2023/09/18 01:55:00;;;;;;;9.53;8.80;;;;;;;;;;4890758;29;20436;-72
2023/09/18 01:57:26;;;;;;;8.30;7.80;;;;;;;;;;4891023;29;20512;-73
2023/09/18 01:59:52;;;;;;;9.33;8.63;;;;;;;;;;4888340;29;20525;-72
2023/09/18 02:02:18;;;;;;;9.13;8.30;;;;;;;;;;4888317;29;20480;-72
2023/09/18 02:04:45;;;;;;;9.80;9.00;;;;;;;;;;4885872;29;20452;-72
2023/09/18 02:07:11;;;;;;;8.80;8.13;;;;;;;;;;4890056;29;20449;-73
2023/09/18 02:09:37;;;;;;;8.70;8.00;;;;;;;;;;4887631;29;20827;-73
2023/09/18 02:12:04;;;;;;;8.83;8.13;;;;;;;;;;4890089;29;20528;-72
2023/09/18 02:14:31;;;;;;;9.13;8.43;;;;;;;;;;4890082;29;20496;-72
2023/09/18 02:16:57;;;;;;;9.60;8.60;;;;;;;;;;4895827;29;21218;-72
2023/09/18 02:19:23;;;;;;;8.83;8.23;;;;;;;;;;4890325;29;20996;-72
2023/09/18 02:21:49;;;;;;;9.57;8.77;;;;;;;;;;4888451;29;20563;-73
2023/09/18 02:24:15;;;;;;;11.83;9.00;;;;;;;;;;4889140;29;20436;-72
2023/09/18 02:26:41;;;;;;;8.50;8.00;;;;;;;;;;4890019;29;20945;-73
2023/09/18 02:29:13;;;;;;;9.07;8.47;;;;;;;;;;4890494;29;20596;-72
2023/09/18 02:31:39;;;;;;;11.23;8.40;;;;;;;;;;4887956;29;20503;-73
2023/09/18 02:34:05;;;;;;;9.13;8.57;;;;;;;;;;4887520;29;20826;-73
2023/09/18 02:36:31;;;;;;;9.27;8.57;;;;;;;;;;4889220;29;20452;-72
2023/09/18 02:38:57;;;;;;;8.47;7.97;;;;;;;;;;4889729;29;20867;-73
2023/09/18 02:41:23;;;;;;;9.03;8.10;;;;;;;;;;4892541;29;20495;-73
2023/09/18 02:43:49;;;;;;;8.40;7.70;;;;;;;;;;4890193;29;20445;-72
2023/09/18 02:46:15;;;;;;;7.80;7.30;;;;;;;;;;4893318;29;20811;-72
2023/09/18 02:48:41;;;;;;;8.83;8.10;;;;;;;;;;4888057;29;20434;-72
2023/09/18 02:51:07;;;;;;;8.33;7.50;;;;;;;;;;4888790;29;20536;-72
2023/09/18 02:53:33;;;;;;;9.53;8.77;;;;;;;;;;4889322;29;20439;-72
2023/09/18 02:56:00;;;;;;;8.70;7.93;;;;;;;;;;4889317;29;20445;-72
2023/09/18 02:58:28;;;;;;;8.63;8.00;;;;;;;;;;4886378;29;20870;-72
2023/09/18 03:00:55;;;;;;;9.97;7.57;;;;;;;;;;4886899;29;21199;-72
2023/09/18 03:03:21;;;;;;;8.07;7.50;;;;;;;;;;4888993;29;20472;-72
2023/09/18 03:05:47;;;;;;;9.90;8.97;;;;;;;;;;4883956;29;20552;-73
2023/09/18 03:08:15;;;;;;;6.10;5.60;;;;;;;;;;4888218;29;20453;-73
2023/09/18 03:10:42;;;;;;;6.13;5.73;;;;;;;;;;4887620;29;20443;-72
2023/09/18 03:13:09;;;;;;;5.37;5.10;;;;;;;;;;4890160;29;20449;-73
2023/09/18 03:15:35;;;;;;;5.90;5.60;;;;;;;;;;4889259;29;20437;-73
2023/09/18 03:18:01;;;;;;;4.80;4.60;;;;;;;;;;4889354;29;20537;-73
2023/09/18 03:20:28;;;;;;;5.37;5.07;;;;;;;;;;4889203;29;20511;-73
2023/09/18 03:22:55;;;;;;;6.33;5.03;;;;;;;;;;4889383;29;20980;-74
2023/09/18 03:25:21;;;;;;;6.03;5.13;;;;;;;;;;4889207;29;20448;-73
2023/09/18 03:27:48;;;;;;;5.40;4.70;;;;;;;;;;4888983;29;21044;-73
2023/09/18 03:30:17;;;;;;;5.00;4.63;;;;;;;;;;4889923;29;20475;-73
2023/09/18 03:32:43;;;;;;;5.87;5.43;;;;;;;;;;4882759;29;20456;-73
2023/09/18 03:35:17;;;;;;;7.23;4.70;;;;;;;;;;4885336;29;20495;-73
2023/09/18 03:37:43;;;;;;;4.90;4.70;;;;;;;;;;4885224;29;20468;-73
2023/09/18 03:40:09;;;;;;;4.37;4.03;;;;;;;;;;4889651;29;20531;-73
2023/09/18 03:42:35;;;;;;;5.50;5.10;;;;;;;;;;4887396;29;20468;-73
2023/09/18 03:45:02;;;;;;;5.30;4.80;;;;;;;;;;4889307;29;20433;-72
2023/09/18 03:47:28;;;;;;;6.43;5.40;;;;;;;;;;4888726;29;20459;-72
2023/09/18 03:49:54;;;;;;;4.70;4.40;;;;;;;;;;4888894;29;20905;-72
2023/09/18 03:52:20;;;;;;;5.67;5.27;;;;;;;;;;4888443;29;20449;-73
2023/09/18 03:54:47;;;;;;;24.17;21.57;;;;;;;;;;4887991;29;20671;-72
2023/09/18 03:57:13;;;;;;;12.83;7.50;;;;;;;;;;4887368;29;20471;-73
2023/09/18 03:59:39;;;;;;;6.83;6.23;;;;;;;;;;4888063;29;20533;-72
2023/09/18 04:02:05;;;;;;;6.73;5.43;;;;;;;;;;4886791;29;20563;-72
2023/09/18 04:04:32;;;;;;;7.83;5.87;;;;;;;;;;4883846;29;20552;-72
2023/09/18 04:06:58;;;;;;;4.83;4.63;;;;;;;;;;4888577;29;20460;-73
2023/09/18 04:09:24;;;;;;;7.33;4.87;;;;;;;;;;4888624;29;20538;-72
2023/09/18 04:11:50;;;;;;;5.47;4.97;;;;;;;;;;4894251;29;20449;-73
2023/09/18 04:14:16;;;;;;;5.77;5.00;;;;;;;;;;4890374;29;20445;-73
2023/09/18 04:16:42;;;;;;;4.73;4.43;;;;;;;;;;4885245;29;21139;-72
2023/09/18 04:19:09;;;;;;;5.43;4.97;;;;;;;;;;4889862;29;20445;-73
2023/09/18 04:21:36;;;;;;;5.13;4.60;;;;;;;;;;4888166;29;21035;-73
2023/09/18 04:24:02;;;;;;;6.67;5.17;;;;;;;;;;4888176;29;20445;-72
2023/09/18 04:26:32;;;;;;;7.77;5.37;;;;;;;;;;4887679;29;20959;-73
2023/09/18 04:29:00;;;;;;;5.00;4.73;;;;;;;;;;4890023;29;20942;-73
2023/09/18 04:31:27;;;;;;;5.10;4.30;;;;;;;;;;4887122;29;20448;-73
2023/09/18 04:33:53;;;;;;;5.77;5.20;;;;;;;;;;4888574;29;20429;-73
2023/09/18 04:36:19;;;;;;;4.90;4.57;;;;;;;;;;4887299;29;20948;-71
2023/09/18 04:38:45;;;;;;;6.53;4.90;;;;;;;;;;4887443;29;20449;-72
2023/09/18 04:41:11;;;;;;;6.83;4.60;;;;;;;;;;4886557;29;21054;-72
2023/09/18 04:43:40;;;;;;;5.70;5.20;;;;;;;;;;4887053;29;20428;-72
2023/09/18 04:46:06;;;;;;;4.80;4.40;;;;;;;;;;4888222;29;20440;-72
2023/09/18 04:48:33;;;;;;;5.33;4.87;;;;;;;;;;4887421;29;20440;-73
2023/09/18 04:50:59;;;;;;;5.43;4.67;;;;;;;;;;4887106;29;20425;-72
2023/09/18 04:53:25;;;;;;;5.50;5.00;;;;;;;;;;4884753;29;20453;-72
2023/09/18 04:55:52;;;;;;;5.27;4.83;;;;;;;;;;4887495;29;20578;-73
2023/09/18 04:58:18;;;;;;;6.67;4.53;;;;;;;;;;4889391;29;20425;-73
2023/09/18 05:00:44;;;;;;;6.90;6.30;;;;;;;;;;4884195;29;20871;-72
2023/09/18 05:03:11;;;;;;;5.83;5.23;;;;;;;;;;4891748;29;20567;-73
2023/09/18 05:05:37;;;;;;;4.77;4.37;;;;;;;;;;4883997;29;20463;-73
2023/09/18 05:08:04;;;;;;;5.97;5.37;;;;;;;;;;4891655;29;20554;-73
2023/09/18 05:10:30;;;;;;;8.37;5.20;;;;;;;;;;4887178;29;20472;-73
2023/09/18 05:12:59;;;;;;;6.80;6.10;;;;;;;;;;4884324;29;20929;-71
2023/09/18 05:15:26;;;;;;;5.17;4.97;;;;;;;;;;4900599;29;20440;-72
2023/09/18 05:17:56;;;;;;;11.80;5.87;;;;;;;;;;4901993;29;20502;-72
2023/09/18 05:20:24;;;;;;;10.57;6.07;;;;;;;;;;4894601;29;20827;-73
2023/09/18 05:22:50;;;;;;;10.30;5.30;;;;;;;;;;4890639;29;20569;-72
2023/09/18 05:25:16;;;;;;;6.63;5.87;;;;;;;;;;4897672;29;20508;-72
2023/09/18 05:27:47;;;;;;;6.30;5.67;;;;;;;;;;4901420;29;20549;-73
2023/09/18 05:30:15;;;;;;;5.47;5.07;;;;;;;;;;4900589;29;20435;-73
2023/09/18 05:32:41;;;;;;;7.10;5.90;;;;;;;;;;4901675;29;20439;-73
2023/09/18 05:35:09;;;;;;;5.93;5.53;;;;;;;;;;4901075;29;20504;-72
2023/09/18 05:37:36;;;;;;;9.80;5.50;;;;;;;;;;4881787;29;20463;-72
2023/09/18 05:40:04;;;;;;;5.80;5.10;;;;;;;;;;4890290;29;20478;-73
2023/09/18 05:42:30;;;;;;;5.50;5.00;;;;;;;;;;4890586;29;20520;-73
2023/09/18 05:44:56;;;;;;;6.00;5.50;;;;;;;;;;4893010;29;20479;-72
2023/09/18 05:47:23;;;;;;;4.80;4.37;;;;;;;;;;4890695;29;20956;-73
2023/09/18 05:49:49;;;;;;;5.70;5.27;;;;;;;;;;4878753;29;21007;-73
2023/09/18 05:52:15;;;;;;;6.63;5.90;;;;;;;;;;4893561;29;20516;-73
2023/09/18 05:54:41;;;;;;;7.67;5.07;;;;;;;;;;4888667;29;21116;-73
2023/09/18 05:57:07;;;;;;;6.93;5.20;;;;;;;;;;4885901;29;20448;-73
2023/09/18 05:59:33;;;;;;;9.80;5.93;;;;;;;;;;4889005;29;20441;-73
2023/09/18 06:01:59;;;;;;;7.20;4.93;;;;;;;;;;4889167;29;20997;-72
2023/09/18 06:04:25;;;;;;;6.33;4.13;;;;;;;;;;4891476;29;20467;-72
2023/09/18 06:06:51;;;;;;;8.07;4.43;;;;;;;;;;4889277;29;20524;-71
2023/09/18 06:09:18;;;;;;;5.37;5.17;;;;;;;;;;4887723;29;20535;-73
2023/09/18 06:11:44;;;;;;;5.20;4.80;;;;;;;;;;4888008;29;20475;-73
2023/09/18 06:14:10;;;;;;;5.03;4.67;;;;;;;;;;4890599;29;20535;-72
2023/09/18 06:16:36;;;;;;;6.87;4.87;;;;;;;;;;4889319;29;20460;-72
2023/09/18 06:19:02;;;;;;;4.97;4.57;;;;;;;;;;4886905;29;20823;-72
2023/09/18 06:21:28;;;;;;;6.40;4.97;;;;;;;;;;4889958;29;20472;-72
2023/09/18 06:23:55;;;;;;;4.80;4.00;;;;;;;;;;4896215;29;20984;-73
2023/09/18 06:26:21;;;;;;;5.43;4.50;;;;;;;;;;4890158;29;20956;-72
2023/09/18 06:28:47;;;;;;;7.00;4.53;;;;;;;;;;4890731;29;20787;-71
2023/09/18 06:31:14;;;;;;;5.63;5.10;;;;;;;;;;4890497;29;20452;-73
2023/09/18 06:33:40;;;;;;;4.70;4.30;;;;;;;;;;4901159;29;20931;-72
2023/09/18 06:36:06;;;;;;;4.50;4.20;;;;;;;;;;4908145;29;20440;-73
2023/09/18 06:38:32;;;;;;;6.33;4.00;;;;;;;;;;4891354;29;20904;-72
2023/09/18 06:40:58;;;;;;;6.30;4.30;;;;;;;;;;4895942;29;20511;-73
2023/09/18 06:43:24;;;;;;;6.63;4.33;;;;;;;;;;4891569;29;20877;-73
2023/09/18 06:45:49;;;;;;;4.47;3.77;;;;;;;;;;4893803;29;20448;-73
2023/09/18 06:48:16;;;;;;;3.93;3.73;;;;;;;;;;4888880;29;20437;-72
2023/09/18 06:50:42;;;;;;;4.60;4.27;;;;;;;;;;4891000;29;20460;-72
2023/09/18 06:53:09;;;;;;;3.47;3.17;;;;;;;;;;4894396;29;20862;-72
2023/09/18 06:55:36;;;;;;;3.97;3.67;;;;;;;;;;4892906;29;20439;-73
2023/09/18 06:58:02;;;;;;;4.43;3.43;;;;;;;;;;4890741;29;20543;-73
2023/09/18 07:00:28;;;;;;;7.33;3.73;;;;;;;;;;4879636;29;20464;-73
2023/09/18 07:02:55;;;;;;;4.70;4.30;;;;;;;;;;4882800;29;20482;-72
2023/09/18 07:05:21;;;;;;;7.20;3.90;;;;;;;;;;4891216;29;20595;-72
2023/09/18 07:07:47;;;;;;;4.13;3.70;;;;;;;;;;4885100;29;21007;-71
2023/09/18 07:10:13;;;;;;;6.23;4.10;;;;;;;;;;4885964;29;20440;-72
2023/09/18 07:12:39;;;;;;;5.90;4.13;;;;;;;;;;4885115;29;20476;-71
2023/09/18 07:15:06;;;;;;;3.67;3.30;;;;;;;;;;4887973;29;20441;-73
2023/09/18 07:17:32;;;;;;;5.93;4.23;;;;;;;;;;4888084;29;20452;-72
2023/09/18 07:19:59;;;;;;;3.93;3.63;;;;;;;;;;4887767;29;20500;-73
2023/09/18 07:22:25;;;;;;;4.47;4.07;;;;;;;;;;4889926;29;20479;-73
2023/09/18 07:24:50;;;;;;;4.83;4.40;;;;;;;;;;4885056;29;20463;-72
2023/09/18 07:27:17;;;;;;;4.93;3.60;;;;;;;;;;4888007;29;20428;-72
2023/09/18 07:29:43;;;;;;;4.23;3.97;;;;;;;;;;4885818;29;20444;-72
2023/09/18 07:32:09;;;;;;;3.77;3.47;;;;;;;;;;4880705;29;20449;-72
2023/09/18 07:34:35;;;;;;;4.30;3.80;;;;;;;;;;4886861;29;20487;-73
2023/09/18 07:37:01;;;;;;;4.80;3.63;;;;;;;;;;4894993;29;20466;-73
2023/09/18 07:39:27;;;;;;;2.97;2.90;;;;;;;;;;4889524;29;20452;-73
2023/09/18 07:41:54;;;;;;;4.33;2.97;;;;;;;;;;4885211;29;20472;-73
2023/09/18 07:44:20;;;;;;;4.07;3.33;;;;;;;;;;4888524;29;20449;-73
2023/09/18 07:46:47;;;;;;;2.67;2.43;;;;;;;;;;4878911;29;20480;-73
2023/09/18 07:49:13;;;;;;;3.30;3.03;;;;;;;;;;4890117;29;20492;-72
2023/09/18 07:51:39;;;;;;;3.20;2.97;;;;;;;;;;4887637;29;20915;-72
2023/09/18 07:54:07;;;;;;;3.40;2.10;;;;;;;;;;4883696;29;20512;-72
2023/09/18 07:56:34;;;;;;;3.00;2.70;;;;;;;;;;4885489;29;20968;-72
2023/09/18 07:59:01;;;;;;;3.33;2.60;;;;;;;;;;4885017;29;20469;-72
2023/09/18 08:01:27;;;;;;;3.93;3.03;;;;;;;;;;4878184;29;20913;-71
2023/09/18 08:03:53;;;;;;;3.23;2.67;;;;;;;;;;4889007;29;20960;-72
2023/09/18 08:06:19;;;;;;;2.90;2.80;;;;;;;;;;4882159;29;20449;-72
2023/09/18 08:08:46;;;;;;;2.50;2.30;;;;;;;;;;4885229;29;20528;-73
2023/09/18 08:11:12;;;;;;;3.23;2.90;;;;;;;;;;4887060;29;21022;-74
2023/09/18 08:13:38;;;;;;;4.60;2.43;;;;;;;;;;4884182;29;20443;-71
2023/09/18 08:16:08;;;;;;;2.67;2.40;;;;;;;;;;4886521;29;21053;-73
2023/09/18 08:18:34;;;;;;;2.23;2.23;;;;;;;;;;4881801;29;20660;-72
2023/09/18 08:21:00;;;;;;;2.10;2.07;;;;;;;;;;4887239;29;20483;-72
2023/09/18 08:23:26;;;;;;;2.23;2.20;;;;;;;;;;4881047;29;21023;-73
2023/09/18 08:25:56;;;;;;;3.10;2.80;;;;;;;;;;4880388;29;20456;-71
2023/09/18 08:28:22;;;;;;;2.60;2.40;;;;;;;;;;4884582;29;20456;-71
2023/09/18 08:30:48;;;;;;;3.13;2.83;;;;;;;;;;4885200;29;20501;-72
2023/09/18 08:33:15;;;;;;;2.10;2.00;;;;;;;;;;4881360;29;20992;-72
2023/09/18 08:35:41;;;;;;;2.50;1.60;;;;;;;;;;4881510;29;20497;-72
2023/09/18 08:38:07;;;;;;;2.30;2.20;;;;;;;;;;4886790;29;20464;-73
2023/09/18 08:40:34;;;;;;;3.70;1.77;;;;;;;;;;4882097;29;20503;-73
2023/09/18 08:43:03;;;;;;;2.00;1.90;;;;;;;;;;4888903;29;20980;-73
2023/09/18 08:45:36;;;;;;;1.87;1.70;;;;;;;;;;4885186;29;21003;-73
2023/09/18 08:48:05;;;;;;;2.07;1.87;;;;;;;;;;4886269;29;20432;-72
2023/09/18 08:50:31;;;;;;;2.17;2.17;;;;;;;;;;4884727;29;20512;-73
2023/09/18 08:52:57;;;;;;;2.60;2.27;;;;;;;;;;4886781;29;20445;-72
2023/09/18 08:55:24;;;;;;;1.90;1.80;;;;;;;;;;4891797;29;20931;-72
2023/09/18 08:57:51;;;;;;;1.77;1.70;;;;;;;;;;4889555;29;20752;-73
2023/09/18 09:00:17;;;;;;;2.10;2.07;;;;;;;;;;4886678;29;20546;-73
2023/09/18 09:02:48;;;;;;;1.70;1.60;;;;;;;;;;4880769;29;20505;-72
2023/09/18 09:05:14;;;;;;;2.57;1.87;;;;;;;;;;4883882;29;20706;-73
2023/09/18 09:07:42;;;;;;;2.17;2.00;;;;;;;;;;4880840;29;20657;-73
2023/09/18 09:10:08;;;;;;;2.03;1.83;;;;;;;;;;4887596;29;20938;-73
2023/09/18 09:12:56;;;;;;;2.03;1.93;;;;;;;;;;4887710;29;20539;-75
2023/09/18 09:15:23;;;;;;;1.73;1.73;;;;;;;;;;4890639;29;20984;-73
2023/09/18 09:17:49;;;;;;;2.57;2.40;;;;;;;;;;4887412;29;23824;-72
2023/09/18 09:20:17;;;;;;;1.40;1.33;;;;;;;;;;4895804;29;20483;-72
2023/09/18 09:22:43;;;;;;;1.63;1.60;;;;;;;;;;4874178;29;20481;-73
2023/09/18 09:25:21;;;;;;;1.47;1.37;;;;;;;;;;4885260;29;20547;-75
2023/09/18 09:27:47;;;;;;;1.43;1.33;;;;;;;;;;4886813;29;20455;-72
2023/09/18 09:30:23;;;;;;;1.50;1.50;;;;;;;;;;4888558;29;20528;-73
2023/09/18 09:32:50;;;;;;;2.10;2.03;;;;;;;;;;4884717;29;20451;-73
2023/09/18 09:35:35;;;;;;;2.00;1.90;;;;;;;;;;4889011;29;21030;-73
2023/09/18 09:38:11;;;;;;;1.33;1.23;;;;;;;;;;4884258;29;20994;-71
2023/09/18 09:40:41;;;;;;;5.67;1.53;;;;;;;;;;4883517;29;20460;-72
2023/09/18 09:43:08;;;;;;;1.90;1.80;;;;;;;;;;4888416;29;20506;-72
2023/09/18 09:45:35;;;;;;;1.73;1.63;;;;;;;;;;4887972;29;20452;-73
2023/09/18 09:48:04;;;;;;;1.60;1.50;;;;;;;;;;4893067;29;20920;-73
2023/09/18 09:50:30;;;;;;;5.00;1.60;;;;;;;;;;4885285;29;20461;-73
2023/09/18 09:52:56;;;;;;;1.97;1.60;;;;;;;;;;4886555;29;20441;-74
2023/09/18 09:55:33;;;;;;;3.70;2.43;;;;;;;;;;4891357;29;20835;-74
2023/09/18 09:58:03;;;;;;;1.67;1.57;;;;;;;;;;4889700;29;20436;-72
2023/09/18 10:00:30;;;;;;;2.20;2.10;;;;;;;;;;4886652;29;20474;-72
2023/09/18 10:03:03;;;;;;;1.47;1.40;;;;;;;;;;4888544;29;20472;-74
2023/09/18 10:05:34;;;;;;;2.83;1.27;;;;;;;;;;4890292;29;20440;-73
2023/09/18 10:08:00;;;;;;;4.10;1.50;;;;;;;;;;4886243;29;20521;-73
2023/09/18 10:10:30;;;;;;;1.87;1.87;;;;;;;;;;4890028;29;20448;-74
2023/09/18 10:12:59;;;;;;;1.63;1.53;;;;;;;;;;4890637;29;20436;-72
2023/09/18 10:15:25;;;;;;;1.47;1.37;;;;;;;;;;4892767;29;20464;-73
2023/09/18 10:17:52;;;;;;;2.20;1.60;;;;;;;;;;4892137;29;20452;-73
2023/09/18 10:20:22;;;;;;;1.70;1.57;;;;;;;;;;4885664;29;20972;-73
2023/09/18 10:22:52;;;;;;;1.73;1.40;;;;;;;;;;4885859;29;20506;-74
2023/09/18 10:25:20;;;;;;;1.63;1.63;;;;;;;;;;4885897;29;20456;-73
2023/09/18 10:27:53;;;;;;;1.30;1.30;;;;;;;;;;4880133;29;20461;-73
2023/09/18 10:30:22;;;;;;;1.73;1.73;;;;;;;;;;4886854;29;20440;-72
2023/09/18 10:32:50;;;;;;;3.33;1.53;;;;;;;;;;4889455;29;20444;-73
2023/09/18 10:35:16;;;;;;;2.50;1.90;;;;;;;;;;4888152;29;20523;-71
2023/09/18 10:37:45;;;;;;;1.90;1.90;;;;;;;;;;4891965;29;20448;-73
2023/09/18 10:40:12;;;;;;;1.53;1.10;;;;;;;;;;4894256;29;20449;-72
2023/09/18 10:42:39;;;;;;;1.63;1.53;;;;;;;;;;4890186;29;20973;-73
2023/09/18 10:45:06;;;;;;;1.70;1.70;;;;;;;;;;4878510;29;20460;-73
2023/09/18 10:47:32;;;;;;;1.63;1.53;;;;;;;;;;4884356;29;20452;-71
2023/09/18 10:49:58;;;;;;;1.70;1.70;;;;;;;;;;4888032;29;20436;-73
2023/09/18 10:52:24;;;;;;;1.30;1.30;;;;;;;;;;4887239;29;20453;-73
2023/09/18 10:54:51;;;;;;;2.20;2.10;;;;;;;;;;4889402;29;20543;-73
2023/09/18 10:57:17;;;;;;;1.63;1.63;;;;;;;;;;4887889;29;20596;-72
2023/09/18 10:59:46;;;;;;;1.70;1.70;;;;;;;;;;4889863;29;20445;-72
2023/09/18 11:02:16;;;;;;;1.73;1.60;;;;;;;;;;4885173;29;20528;-73
2023/09/18 11:04:43;;;;;;;1.60;1.47;;;;;;;;;;4887051;29;20463;-73
2023/09/18 11:07:09;;;;;;;4.47;1.90;;;;;;;;;;4888072;29;20495;-73
2023/09/18 11:09:43;;;;;;;1.73;1.70;;;;;;;;;;4893953;29;20536;-74
2023/09/18 11:12:14;;;;;;;1.60;1.60;;;;;;;;;;4890335;29;20447;-74
2023/09/18 11:14:44;;;;;;;1.73;1.73;;;;;;;;;;4888179;29;20444;-74
2023/09/18 11:17:29;;;;;;;1.60;1.60;;;;;;;;;;4882609;29;20772;-73
2023/09/18 11:20:09;;;;;;;2.17;2.07;;;;;;;;;;4884648;29;20450;-72
2023/09/18 11:22:38;;;;;;;1.47;1.47;;;;;;;;;;4890325;29;20499;-73
2023/09/18 11:25:28;;;;;;;2.40;2.20;;;;;;;;;;4885202;29;20449;-72
2023/09/18 11:27:55;;;;;;;1.23;1.23;;;;;;;;;;4879777;29;20488;-74
2023/09/18 11:30:22;;;;;;;1.50;1.50;;;;;;;;;;4886235;29;20484;-74
2023/09/18 11:32:48;;;;;;;1.90;1.80;;;;;;;;;;4889939;29;20494;-73
2023/09/18 11:35:16;;;;;;;1.73;1.73;;;;;;;;;;4887565;29;20461;-73
2023/09/18 11:37:43;;;;;;;2.00;2.00;;;;;;;;;;4888567;29;20483;-72
2023/09/18 11:40:28;;;;;;;1.90;1.80;;;;;;;;;;4888552;29;20476;-73
2023/09/18 11:43:15;;;;;;;3.60;2.70;;;;;;;;;;4882234;29;20469;-73
2023/09/18 11:45:42;;;;;;;1.63;1.63;;;;;;;;;;4892051;29;20790;-73
2023/09/18 11:48:11;;;;;;;2.07;1.97;;;;;;;;;;4883881;29;20433;-73
2023/09/18 11:50:39;;;;;;;1.40;1.37;;;;;;;;;;4881832;29;20430;-74
2023/09/18 11:53:06;;;;;;;1.70;1.70;;;;;;;;;;4884478;29;20430;-73
2023/09/18 11:55:32;;;;;;;1.70;1.60;;;;;;;;;;4887754;29;20429;-72
2023/09/18 11:58:01;;;;;;;2.33;2.13;;;;;;;;;;4888186;29;20433;-73
2023/09/18 12:00:29;;;;;;;1.60;1.53;;;;;;;;;;4880025;29;20469;-73
2023/09/18 12:02:57;;;;;;;2.03;1.93;;;;;;;;;;4878752;29;20478;-74
2023/09/18 12:05:26;;;;;;;2.03;2.03;;;;;;;;;;4884701;29;20442;-73
2023/09/18 12:07:52;;;;;;;1.93;1.83;;;;;;;;;;4879764;29;20791;-72
2023/09/18 12:10:20;;;;;;;2.80;2.70;;;;;;;;;;4873460;29;20432;-73
2023/09/18 12:12:47;;;;;;;2.10;2.00;;;;;;;;;;4887435;29;20425;-72
2023/09/18 12:15:15;;;;;;;2.17;1.97;;;;;;;;;;4887011;29;20561;-73
2023/09/18 12:17:41;;;;;;;2.10;2.00;;;;;;;;;;4881832;29;20790;-72
2023/09/18 12:20:07;;;;;;;2.77;1.80;;;;;;;;;;4880938;29;20429;-73
2023/09/18 12:22:36;;;;;;;3.30;2.33;;;;;;;;;;4887092;29;20479;-72
2023/09/18 12:25:09;;;;;;;1.30;1.30;;;;;;;;;;4886511;29;20473;-73
2023/09/18 12:27:37;;;;;;;2.40;2.23;;;;;;;;;;4884766;29;20516;-73
2023/09/18 12:30:04;;;;;;;1.80;1.80;;;;;;;;;;4890187;29;20435;-73
2023/09/18 12:32:32;;;;;;;2.43;2.23;;;;;;;;;;4877409;29;20452;-73
2023/09/18 12:34:58;;;;;;;2.50;2.40;;;;;;;;;;4881105;29;20484;-74
2023/09/18 12:37:25;;;;;;;1.73;1.63;;;;;;;;;;4880043;29;20459;-73
2023/09/18 12:39:54;;;;;;;1.90;1.80;;;;;;;;;;4878969;29;20440;-72
2023/09/18 12:42:20;;;;;;;2.23;2.00;;;;;;;;;;4883855;29;20897;-73
2023/09/18 12:44:47;;;;;;;2.00;1.93;;;;;;;;;;4879205;29;20854;-72
2023/09/18 12:47:13;;;;;;;1.93;1.93;;;;;;;;;;4889684;29;20440;-72
2023/09/18 12:49:39;;;;;;;3.83;2.60;;;;;;;;;;4882784;29;21035;-73
2023/09/18 12:52:10;;;;;;;2.90;2.63;;;;;;;;;;4883594;29;20440;-75
2023/09/18 12:54:40;;;;;;;2.33;2.13;;;;;;;;;;4878598;29;20544;-72
2023/09/18 12:57:06;;;;;;;2.10;2.00;;;;;;;;;;4881808;29;21032;-72
2023/09/18 12:59:33;;;;;;;1.63;1.53;;;;;;;;;;4875772;29;20687;-72
2023/09/18 13:01:59;;;;;;;1.80;1.80;;;;;;;;;;4880232;29;20475;-72
2023/09/18 13:04:25;;;;;;;2.97;2.77;;;;;;;;;;4883616;29;20511;-73
2023/09/18 13:07:06;;;;;;;1.80;1.77;;;;;;;;;;4880693;29;20464;-73
2023/09/18 13:09:32;;;;;;;2.30;1.73;;;;;;;;;;4876179;29;20480;-71
2023/09/18 13:11:58;;;;;;;1.70;1.70;;;;;;;;;;4884625;29;20548;-72
2023/09/18 13:14:27;;;;;;;3.47;2.57;;;;;;;;;;4883642;29;20449;-74
2023/09/18 13:16:53;;;;;;;2.17;2.17;;;;;;;;;;4885498;29;20858;-73
2023/09/18 13:19:19;;;;;;;1.60;1.60;;;;;;;;;;4884571;29;21251;-73
2023/09/18 13:21:51;;;;;;;2.13;1.93;;;;;;;;;;4887441;29;20484;-74
2023/09/18 13:24:27;;;;;;;2.30;2.10;;;;;;;;;;4889652;29;20693;-72
2023/09/18 13:26:54;;;;;;;1.63;1.63;;;;;;;;;;4889707;29;20452;-73
2023/09/18 13:29:20;;;;;;;1.90;1.90;;;;;;;;;;4881441;29;20540;-73
2023/09/18 13:31:46;;;;;;;2.00;2.00;;;;;;;;;;4886972;29;20467;-72
2023/09/18 13:34:12;;;;;;;1.90;1.80;;;;;;;;;;4886540;29;21136;-72
2023/09/18 13:36:38;;;;;;;1.90;1.80;;;;;;;;;;4884677;29;20481;-74
2023/09/18 13:39:04;;;;;;;2.13;1.93;;;;;;;;;;4887702;29;20429;-73
2023/09/18 13:41:31;;;;;;;2.23;2.23;;;;;;;;;;4886726;29;20466;-73
2023/09/18 13:43:57;;;;;;;1.93;1.87;;;;;;;;;;4885921;29;20436;-74
2023/09/18 13:46:23;;;;;;;2.23;2.13;;;;;;;;;;4886537;29;20444;-73
2023/09/18 13:48:50;;;;;;;1.67;1.60;;;;;;;;;;4888112;29;20437;-74
2023/09/18 13:51:17;;;;;;;1.80;1.80;;;;;;;;;;4885547;29;20441;-73
2023/09/18 13:53:43;;;;;;;1.97;1.97;;;;;;;;;;4888806;29;20452;-73
2023/09/18 13:56:09;;;;;;;1.73;1.73;;;;;;;;;;4884454;29;20488;-73
2023/09/18 13:58:41;;;;;;;1.83;1.83;;;;;;;;;;4885817;29;20484;-73
2023/09/18 14:01:07;;;;;;;2.23;2.23;;;;;;;;;;4887570;29;20552;-73
2023/09/18 14:03:34;;;;;;;2.53;2.33;;;;;;;;;;4887619;29;20480;-73
2023/09/18 14:06:00;;;;;;;3.60;1.80;;;;;;;;;;4886165;29;20455;-72
2023/09/18 14:08:26;;;;;;;1.60;1.60;;;;;;;;;;4886364;29;20544;-74
2023/09/18 14:10:52;;;;;;;1.77;1.77;;;;;;;;;;4880424;29;20555;-72
2023/09/18 14:13:18;;;;;;;2.40;2.40;;;;;;;;;;4881960;29;20461;-73
2023/09/18 14:15:44;;;;;;;2.10;2.10;;;;;;;;;;4885429;29;20488;-74
2023/09/18 14:18:10;;;;;;;2.37;2.17;;;;;;;;;;4889590;29;20507;-73
2023/09/18 14:20:36;;;;;;;1.83;1.73;;;;;;;;;;4887696;29;20456;-73
2023/09/18 14:23:03;;;;;;;2.93;2.13;;;;;;;;;;4888919;29;20469;-73
2023/09/18 14:25:30;;;;;;;1.70;1.70;;;;;;;;;;4888388;29;20459;-73
2023/09/18 14:27:56;;;;;;;1.90;1.80;;;;;;;;;;4883015;29;20432;-73
2023/09/18 14:30:29;;;;;;;1.80;1.80;;;;;;;;;;4884357;29;21037;-72
2023/09/18 14:32:55;;;;;;;1.97;1.97;;;;;;;;;;4881209;29;20440;-72
2023/09/18 14:35:23;;;;;;;2.33;2.10;;;;;;;;;;4888435;29;20456;-72
2023/09/18 14:37:49;;;;;;;1.67;1.67;;;;;;;;;;4873157;29;20466;-73
2023/09/18 14:40:15;;;;;;;1.87;1.77;;;;;;;;;;4887943;29;20413;-71
2023/09/18 14:42:41;;;;;;;2.20;2.20;;;;;;;;;;4883961;29;20883;-72